createdAt,value
2023-03-11T00:02:25.000Z,16.58
2023-03-11T00:07:26.000Z,17.64
2023-03-11T00:12:25.000Z,19.23
2023-03-11T00:17:25.000Z,20.84
2023-03-11T00:22:25.000Z,22.73
2023-03-11T00:27:25.000Z,24.31
2023-03-11T00:32:25.000Z,24.44
2023-03-11T00:37:25.000Z,22.75
2023-03-11T00:42:26.000Z,24.34
2023-03-11T00:47:26.000Z,24.94
2023-03-11T00:52:26.000Z,25.74
2023-03-11T00:57:26.000Z,27.86
2023-03-11T01:02:24.000Z,28.65
2023-03-11T01:07:25.000Z,27.62
2023-03-11T01:12:25.000Z,26.99
2023-03-11T01:17:25.000Z,27.32
2023-03-11T01:22:25.000Z,27.72
2023-03-11T01:27:25.000Z,26.46
2023-03-11T01:32:25.000Z,26.95
2023-03-11T01:37:25.000Z,27.19
2023-03-11T01:42:25.000Z,28.96
2023-03-11T01:47:26.000Z,28.65
2023-03-11T01:52:26.000Z,29.09
2023-03-11T01:57:25.000Z,29.99
2023-03-11T02:02:26.000Z,31.91
2023-03-11T02:07:25.000Z,33.94
2023-03-11T02:12:25.000Z,33.29
2023-03-11T02:17:25.000Z,33.18
2023-03-11T02:22:25.000Z,32.9
2023-03-11T02:27:25.000Z,31.04
2023-03-11T02:32:25.000Z,31.38
2023-03-11T02:37:25.000Z,30.71
2023-03-11T02:42:26.000Z,29.1
2023-03-11T02:47:25.000Z,29.96
2023-03-11T02:52:25.000Z,29.07
2023-03-11T02:57:26.000Z,26.61
2023-03-11T03:02:25.000Z,23.38
2023-03-11T03:07:25.000Z,20.65
2023-03-11T03:12:25.000Z,17.43
2023-03-11T03:17:25.000Z,14.09
2023-03-11T03:22:25.000Z,10.37
2023-03-11T03:27:26.000Z,8.86
2023-03-11T03:32:25.000Z,7.73
2023-03-11T03:37:25.000Z,6.12
2023-03-11T03:42:25.000Z,6.21
2023-03-11T03:47:26.000Z,6.06
2023-03-11T03:52:25.000Z,6.11
2023-03-11T03:57:25.000Z,5.4
2023-03-11T04:02:25.000Z,5.02
2023-03-11T04:07:25.000Z,5.64
2023-03-11T04:12:25.000Z,5.07
2023-03-11T04:17:25.000Z,5.6
2023-03-11T04:22:25.000Z,5.87
2023-03-11T04:27:25.000Z,6.37
2023-03-11T04:32:25.000Z,6.29
2023-03-11T04:37:25.000Z,6.66
2023-03-11T04:42:25.000Z,6.8
2023-03-11T04:47:25.000Z,7.18
2023-03-11T04:52:25.000Z,7.36
2023-03-11T04:57:25.000Z,7.22
2023-03-11T05:02:26.000Z,7.19
2023-03-11T05:07:25.000Z,6.6
2023-03-11T05:12:25.000Z,6.46
2023-03-11T05:17:25.000Z,6.67
2023-03-11T05:22:26.000Z,6.42
2023-03-11T05:27:25.000Z,6.61
2023-03-11T05:32:25.000Z,6.76
2023-03-11T05:37:25.000Z,6.22
2023-03-11T05:42:25.000Z,6.4
2023-03-11T05:47:25.000Z,6.6
2023-03-11T05:52:25.000Z,6.35
2023-03-11T05:57:25.000Z,6.45
2023-03-11T06:02:25.000Z,6.36
2023-03-11T06:07:24.000Z,6.02
2023-03-11T06:12:25.000Z,6.14
2023-03-11T06:17:25.000Z,5.35
2023-03-11T06:22:25.000Z,5.43
2023-03-11T06:27:26.000Z,5.2
2023-03-11T06:32:25.000Z,5.43
2023-03-11T06:37:25.000Z,4.48
2023-03-11T06:42:25.000Z,4.54
2023-03-11T06:47:25.000Z,4.65
2023-03-11T06:52:25.000Z,5.09
2023-03-11T06:57:25.000Z,4.91
2023-03-11T07:02:24.000Z,5.33
2023-03-11T07:07:25.000Z,5.24
2023-03-11T07:12:25.000Z,4.9
2023-03-11T07:17:25.000Z,5
2023-03-11T07:22:25.000Z,5.13
2023-03-11T07:27:26.000Z,6.27
2023-03-11T07:32:25.000Z,5.29
2023-03-11T07:37:25.000Z,5.76
2023-03-11T07:42:25.000Z,6.55
2023-03-11T07:47:25.000Z,5.75
2023-03-11T07:52:26.000Z,6.18
2023-03-11T07:57:25.000Z,6.54
2023-03-11T08:02:25.000Z,5.84
2023-03-11T08:07:25.000Z,6.5
2023-03-11T08:12:26.000Z,6.83
2023-03-11T08:17:25.000Z,6.77
2023-03-11T08:22:25.000Z,6.55
2023-03-11T08:27:25.000Z,6.2
2023-03-11T08:32:26.000Z,6.57
2023-03-11T08:37:25.000Z,6.77
2023-03-11T08:42:26.000Z,7.36
2023-03-11T08:47:25.000Z,6.52
2023-03-11T08:52:25.000Z,7.08
2023-03-11T08:57:26.000Z,7.25
2023-03-11T09:02:25.000Z,5.73
2023-03-11T09:07:25.000Z,5.47
2023-03-11T09:12:26.000Z,6.1
2023-03-11T09:17:25.000Z,6.13
2023-03-11T09:22:26.000Z,6.67
2023-03-11T09:27:25.000Z,6.75
2023-03-11T09:32:25.000Z,6.08
2023-03-11T09:37:26.000Z,4.78
2023-03-11T09:42:26.000Z,5.66
2023-03-11T09:47:25.000Z,5.44
2023-03-11T09:52:26.000Z,5.78
2023-03-11T09:57:25.000Z,6.15
2023-03-11T10:02:25.000Z,5.48
2023-03-11T10:07:25.000Z,5.63
2023-03-11T10:12:25.000Z,5.94
2023-03-11T10:17:25.000Z,5.64
2023-03-11T10:22:25.000Z,5.81
2023-03-11T10:27:26.000Z,5.65
2023-03-11T10:32:25.000Z,5.76
2023-03-11T10:37:26.000Z,4.92
2023-03-11T10:42:25.000Z,5.25
2023-03-11T10:47:25.000Z,4.79
2023-03-11T10:52:25.000Z,4.8
2023-03-11T10:57:26.000Z,4.59
2023-03-11T11:02:25.000Z,5.1
2023-03-11T11:07:26.000Z,4.81
2023-03-11T11:12:25.000Z,4.55
2023-03-11T11:17:25.000Z,5.39
2023-03-11T11:22:26.000Z,5.29
2023-03-11T11:27:26.000Z,5.14
2023-03-11T11:32:25.000Z,4.39
2023-03-11T11:37:25.000Z,5.04
2023-03-11T11:42:26.000Z,5.25
2023-03-11T11:47:26.000Z,5.56
2023-03-11T11:52:25.000Z,6.34
2023-03-11T11:57:25.000Z,5.75
2023-03-11T12:02:25.000Z,4.39
2023-03-11T12:07:25.000Z,4.48
2023-03-11T12:12:25.000Z,4.99
2023-03-11T12:17:25.000Z,4.66
2023-03-11T12:22:25.000Z,4.88
2023-03-11T12:27:25.000Z,5.55
2023-03-11T12:32:25.000Z,5.12
2023-03-11T12:37:24.000Z,4.74
2023-03-11T12:42:25.000Z,4.34
2023-03-11T12:47:24.000Z,5.26
2023-03-11T12:52:26.000Z,4.46
2023-03-11T12:57:25.000Z,4.94
2023-03-11T13:02:25.000Z,4.64
2023-03-11T13:07:25.000Z,4.89
2023-03-11T13:12:25.000Z,5.05
2023-03-11T13:17:26.000Z,4.83
2023-03-11T13:22:25.000Z,4.38
2023-03-11T13:27:25.000Z,4.12
2023-03-11T13:32:25.000Z,4.24
2023-03-11T13:37:26.000Z,4.43
2023-03-11T13:42:25.000Z,4.93
2023-03-11T13:47:24.000Z,4.19
2023-03-11T13:52:25.000Z,3.86
2023-03-11T13:57:25.000Z,4.26
2023-03-11T14:02:26.000Z,4.83
2023-03-11T14:07:26.000Z,5.43
2023-03-11T14:12:26.000Z,5.01
2023-03-11T14:17:25.000Z,4.97
2023-03-11T14:22:26.000Z,5.08
2023-03-11T14:27:25.000Z,4.98
2023-03-11T14:32:26.000Z,4.96
2023-03-11T14:37:25.000Z,5.43
2023-03-11T14:42:26.000Z,5.11
2023-03-11T14:47:26.000Z,5.04
2023-03-11T14:52:25.000Z,4.99
2023-03-11T14:57:26.000Z,5.6
2023-03-11T15:02:26.000Z,6.44
2023-03-11T15:07:25.000Z,6.38
2023-03-11T15:12:25.000Z,5.77
2023-03-11T15:17:25.000Z,5.94
2023-03-11T15:22:26.000Z,6
2023-03-11T15:27:25.000Z,4.45
2023-03-11T15:32:25.000Z,5.63
2023-03-11T15:37:25.000Z,5.54
2023-03-11T15:42:25.000Z,5.4
2023-03-11T15:47:25.000Z,3.83
2023-03-11T15:52:26.000Z,4.66
2023-03-11T15:57:26.000Z,4.77
2023-03-11T16:02:26.000Z,4.85
2023-03-11T16:07:27.000Z,4.56
2023-03-11T16:12:26.000Z,4.74
2023-03-11T16:17:26.000Z,4.66
2023-03-11T16:22:25.000Z,5.43
2023-03-11T16:27:25.000Z,4.3
2023-03-11T16:32:25.000Z,4.92
2023-03-11T16:37:25.000Z,5.3
2023-03-11T16:42:25.000Z,5.7
2023-03-11T16:47:25.000Z,5.37
2023-03-11T16:52:26.000Z,5.4
2023-03-11T16:57:25.000Z,5.82
2023-03-11T17:02:25.000Z,4.98
2023-03-11T17:17:25.000Z,6.34
2023-03-11T17:22:25.000Z,5.77
2023-03-11T17:27:25.000Z,6.6
2023-03-11T17:32:25.000Z,6.2
2023-03-11T17:37:25.000Z,6.71
2023-03-11T17:42:25.000Z,6.29
2023-03-11T17:47:25.000Z,6.78
2023-03-11T17:52:25.000Z,5.59
2023-03-11T17:57:25.000Z,5.61
2023-03-11T18:02:25.000Z,6.73
2023-03-11T18:07:25.000Z,5.57
2023-03-11T18:12:25.000Z,6.18
2023-03-11T18:17:25.000Z,6.02
2023-03-11T18:22:25.000Z,5.74
2023-03-11T18:27:25.000Z,6.85
2023-03-11T18:32:25.000Z,6.76
2023-03-11T18:37:25.000Z,6.07
2023-03-11T18:42:25.000Z,6.65
2023-03-11T18:47:25.000Z,6.05
2023-03-11T18:52:25.000Z,6.01
2023-03-11T18:57:25.000Z,5.62
2023-03-11T19:02:24.000Z,6.13
2023-03-11T19:07:25.000Z,6.23
2023-03-11T19:12:25.000Z,6.71
2023-03-11T19:17:26.000Z,5.8
2023-03-11T19:22:26.000Z,6.44
2023-03-11T19:27:25.000Z,6.74
2023-03-11T19:32:25.000Z,6.56
2023-03-11T19:37:25.000Z,7.16
2023-03-11T19:42:25.000Z,5.75
2023-03-11T19:47:25.000Z,6.37
2023-03-11T19:52:25.000Z,5.78
2023-03-11T19:57:25.000Z,6.08
2023-03-11T20:02:25.000Z,6.27
2023-03-11T20:07:25.000Z,6.27
2023-03-11T20:12:24.000Z,6.01
2023-03-11T20:17:26.000Z,5.81
2023-03-11T20:22:25.000Z,6.43
2023-03-11T20:27:25.000Z,5.28
2023-03-11T20:32:25.000Z,5.59
2023-03-11T20:37:25.000Z,6.1
2023-03-11T20:42:25.000Z,5.77
2023-03-11T20:47:25.000Z,5.29
2023-03-11T20:52:25.000Z,5.11
2023-03-11T20:57:25.000Z,5.3
2023-03-11T21:02:26.000Z,5.47
2023-03-11T21:07:25.000Z,4.9
2023-03-11T21:12:25.000Z,5.11
2023-03-11T21:17:25.000Z,5.16
2023-03-11T21:22:25.000Z,5.79
2023-03-11T21:27:25.000Z,4.81
2023-03-11T21:32:25.000Z,4.5
2023-03-11T21:37:25.000Z,4.45
2023-03-11T21:42:26.000Z,4.58
2023-03-11T21:47:25.000Z,4.19
2023-03-11T21:52:25.000Z,3.93
2023-03-11T21:57:25.000Z,3.44
2023-03-11T22:02:25.000Z,2.94
2023-03-11T22:07:26.000Z,3.07
2023-03-11T22:12:25.000Z,2.8
2023-03-11T22:17:24.000Z,2.98
2023-03-11T22:22:24.000Z,2.8
2023-03-11T22:27:25.000Z,3.05
2023-03-11T22:32:25.000Z,2.83
2023-03-11T22:37:25.000Z,2.98
2023-03-11T22:42:25.000Z,3.08
2023-03-11T22:47:25.000Z,2.85
2023-03-11T22:52:25.000Z,2.72
2023-03-11T22:57:26.000Z,2.46
2023-03-11T23:02:26.000Z,2.6
2023-03-11T23:07:25.000Z,2.58
2023-03-11T23:12:25.000Z,2.94
2023-03-11T23:17:25.000Z,3.14
2023-03-11T23:22:26.000Z,3.55
2023-03-11T23:27:25.000Z,3.96
2023-03-11T23:32:26.000Z,4.22
2023-03-11T23:37:24.000Z,4.4
2023-03-11T23:42:25.000Z,5.17
2023-03-11T23:47:25.000Z,5.47
2023-03-11T23:52:25.000Z,5.59
2023-03-11T23:57:26.000Z,5.52
